Time;durP1;ratioP1;P1;durP2;ratioP2;P2;SDS_P1;SDS_P2;PMS_P1;PMS_P2;Temp;Humidity;BMP_temperature;BMP_pressure;BME280_temperature;BME280_humidity;BME280_pressure;Samples;Min_cycle;Max_cycle;Signal;HPM_P1;HPM_P2
2022/10/19 00:01:39;;;;;;;17.80;11.18;;;;;;;12.11;100.00;101239.44;4941980;29;20392;-81
2022/10/19 00:04:05;;;;;;;16.30;12.15;;;;;;;11.88;100.00;101217.22;4957650;29;20034;-82
2022/10/19 00:06:34;;;;;;;19.08;11.88;;;;;;;12.01;100.00;101242.81;4959106;29;20114;-84
2022/10/19 00:09:21;;;;;;;20.48;11.27;;;;;;;11.89;100.00;101233.13;4957819;28;20040;-82
2022/10/19 00:11:48;;;;;;;21.77;13.75;;;;;;;11.86;100.00;101239.03;4941503;29;20023;-83
2022/10/19 00:14:22;;;;;;;20.42;13.40;;;;;;;11.77;100.00;101243.47;4941673;29;20499;-83
2022/10/19 00:16:50;;;;;;;24.77;14.68;;;;;;;11.77;100.00;101249.19;4941688;29;20480;-84
2022/10/19 00:19:23;;;;;;;22.48;14.80;;;;;;;11.71;100.00;101236.81;4927693;29;20031;-82
2022/10/19 00:21:51;;;;;;;29.42;16.20;;;;;;;11.65;100.00;101237.91;4956679;29;20039;-83
2022/10/19 00:24:25;;;;;;;30.25;16.27;;;;;;;11.63;100.00;101246.19;4957570;29;20027;-82
2022/10/19 00:26:55;;;;;;;30.85;16.67;;;;;;;11.57;100.00;101254.59;4959985;28;20023;-83
2022/10/19 00:29:23;;;;;;;31.73;18.30;;;;;;;11.31;100.00;101224.72;4958002;29;20059;-83
2022/10/19 00:31:54;;;;;;;33.45;16.88;;;;;;;11.20;100.00;101207.22;4957465;29;20033;-85
2022/10/19 00:34:30;;;;;;;;;;;;;;;;;;;;;
2022/10/19 00:36:56;;;;;;;32.85;16.60;;;;;;;11.34;100.00;101249.50;4953643;29;20098;-84
2022/10/19 00:39:33;;;;;;;29.15;16.45;;;;;;;11.33;100.00;101247.91;4957344;29;20027;-85
2022/10/19 00:42:03;;;;;;;32.45;16.58;;;;;;;11.29;100.00;101241.56;4941561;29;20022;-85
2022/10/19 00:44:38;;;;;;;27.00;15.35;;;;;;;11.20;100.00;101236.63;4957083;29;20031;-84
2022/10/19 00:47:06;;;;;;;24.88;14.98;;;;;;;11.10;100.00;101228.47;4979659;23;20050;-85
2022/10/19 00:49:46;;;;;;;28.30;15.18;;;;;;;10.98;100.00;101225.25;4960091;28;20057;-83
2022/10/19 00:52:25;;;;;;;30.65;13.98;;;;;;;10.93;100.00;101216.50;4960621;28;20034;-83
2022/10/19 00:54:55;;;;;;;22.27;14.10;;;;;;;10.62;100.00;101198.66;4976290;28;20034;-83
2022/10/19 00:57:42;;;;;;;25.75;14.27;;;;;;;10.76;100.00;101210.28;4975327;28;20077;-82
2022/10/19 01:00:12;;;;;;;24.08;13.80;;;;;;;10.97;100.00;101249.41;4974828;28;20036;-83
2022/10/19 01:02:43;;;;;;;31.27;14.90;;;;;;;10.84;100.00;101227.94;4976132;28;20030;-83
2022/10/19 01:05:16;;;;;;;25.35;13.50;;;;;;;10.73;100.00;101222.66;4976327;28;20026;-83
2022/10/19 01:07:44;;;;;;;27.77;14.73;;;;;;;10.66;100.00;101210.72;4958817;28;20040;-84
2022/10/19 01:10:14;;;;;;;26.92;14.88;;;;;;;10.67;100.00;101210.25;4958325;28;20039;-83
2022/10/19 01:12:53;;;;;;;28.65;14.68;;;;;;;10.69;100.00;101222.00;4974944;28;20038;-83
2022/10/19 01:15:27;;;;;;;28.25;15.88;;;;;;;10.61;100.00;101219.91;4958908;28;20023;-84
2022/10/19 01:18:21;;;;;;;24.88;14.43;;;;;;;10.76;100.00;101236.00;4975821;28;20105;-83
2022/10/19 01:21:10;;;;;;;26.55;14.48;;;;;;;10.74;100.00;101227.09;4964166;28;20039;-83
2022/10/19 01:24:00;;;;;;;33.08;15.93;;;;;;;10.73;100.00;101233.31;4975063;28;20034;-83
2022/10/19 01:26:44;;;;;;;27.92;15.20;;;;;;;10.71;100.00;101235.84;4975468;28;20034;-84
2022/10/19 01:29:18;;;;;;;33.28;16.52;;;;;;;10.66;100.00;101228.66;4976956;28;20067;-83
2022/10/19 01:32:03;;;;;;;31.75;16.55;;;;;;;10.65;100.00;101224.22;4975771;28;20121;-84
2022/10/19 01:35:03;;;;;;;32.90;16.40;;;;;;;10.64;100.00;101230.41;4976724;28;20031;-85
2022/10/19 01:38:13;;;;;;;32.90;15.48;;;;;;;10.62;100.00;101224.38;4976970;28;20030;-83
2022/10/19 01:40:54;;;;;;;33.88;16.35;;;;;;;10.59;100.00;101211.81;4939905;28;20051;-83
2022/10/19 01:43:42;;;;;;;30.55;16.88;;;;;;;10.60;100.00;101219.13;4975327;28;20027;-83
2022/10/19 01:46:27;;;;;;;30.38;16.60;;;;;;;10.57;100.00;101216.41;4981843;23;20503;-82
2022/10/19 01:49:06;;;;;;;37.53;16.52;;;;;;;10.53;100.00;101210.84;4975531;28;20027;-82
2022/10/19 01:51:35;;;;;;;36.97;16.25;;;;;;;10.53;100.00;101208.75;4975567;28;20030;-83
2022/10/19 01:54:05;;;;;;;33.78;16.40;;;;;;;10.52;100.00;101212.91;4959050;28;20034;-82
2022/10/19 01:56:33;;;;;;;39.03;18.92;;;;;;;10.49;100.00;101218.75;4975051;28;20029;-82
2022/10/19 01:59:03;;;;;;;35.17;17.08;;;;;;;10.47;100.00;101204.94;4975076;28;20494;-82
2022/10/19 02:01:33;;;;;;;32.55;17.67;;;;;;;10.34;100.00;101180.59;4943014;28;20471;-81
2022/10/19 02:04:01;;;;;;;37.58;17.42;;;;;;;10.53;100.00;101199.41;4976656;28;20054;-81
2022/10/19 02:06:27;;;;;;;33.25;18.33;;;;;;;10.71;100.00;101218.69;4958861;28;20041;-81
2022/10/19 02:08:54;;;;;;;41.00;18.95;;;;;;;10.76;100.00;101204.56;4976781;28;20038;-83
2022/10/19 02:11:21;;;;;;;41.75;20.17;;;;;;;10.79;100.00;101199.94;4958684;28;20086;-81
2022/10/19 02:14:04;;;;;;;37.72;20.98;;;;;;;10.93;100.00;101199.34;4958903;28;20499;-81
2022/10/19 02:16:37;;;;;;;44.15;20.73;;;;;;;10.93;100.00;101196.47;4958616;28;20027;-81
2022/10/19 02:19:04;;;;;;;36.95;19.45;;;;;;;11.08;100.00;101208.91;4958544;28;20053;-82
2022/10/19 02:21:33;;;;;;;40.38;18.40;;;;;;;11.06;100.00;101199.22;4958508;28;20034;-83
2022/10/19 02:23:59;;;;;;;39.30;18.50;;;;;;;11.13;100.00;101211.16;4958881;28;20039;-82
2022/10/19 02:26:26;;;;;;;38.83;18.98;;;;;;;10.91;100.00;101165.53;4974474;28;20041;-82
2022/10/19 02:28:54;;;;;;;39.08;19.38;;;;;;;11.28;100.00;101220.72;4975770;28;20058;-82
2022/10/19 02:31:20;;;;;;;39.80;18.33;;;;;;;11.32;100.00;101217.72;4958514;28;20035;-81
2022/10/19 02:33:47;;;;;;;37.42;18.98;;;;;;;11.26;100.00;101199.59;4974666;28;20117;-82
2022/10/19 02:36:23;;;;;;;37.45;20.10;;;;;;;11.38;100.00;101201.50;4974539;28;20361;-82
2022/10/19 02:38:54;;;;;;;36.97;19.05;;;;;;;11.37;100.00;101199.91;4975635;28;20033;-82
2022/10/19 02:41:34;;;;;;;32.78;18.40;;;;;;;11.40;100.00;101185.44;4974265;28;20079;-81
2022/10/19 02:44:04;;;;;;;38.03;19.17;;;;;;;11.53;100.00;101202.44;4974938;28;20387;-81
2022/10/19 02:46:54;;;;;;;35.33;19.15;;;;;;;11.57;100.00;101217.38;4971871;23;20158;-82
2022/10/19 02:49:23;;;;;;;32.80;18.85;;;;;;;11.10;100.00;101132.00;4974275;28;20468;-81
2022/10/19 02:52:04;;;;;;;37.65;19.38;;;;;;;11.62;100.00;101208.16;4974081;28;20469;-82
2022/10/19 02:54:36;;;;;;;37.33;19.27;;;;;;;11.38;100.00;101170.00;4974284;28;20026;-83
2022/10/19 02:57:14;;;;;;;34.53;19.17;;;;;;;11.53;100.00;101184.47;4975408;28;20026;-83
2022/10/19 02:59:43;;;;;;;32.55;17.83;;;;;;;11.57;100.00;101194.50;4975260;28;20045;-82
2022/10/19 03:02:14;;;;;;;33.60;18.77;;;;;;;11.22;100.00;101141.75;4975289;28;20031;-81
2022/10/19 03:04:45;;;;;;;39.92;19.42;;;;;;;11.60;100.00;101216.44;4975310;28;20030;-82
2022/10/19 03:07:15;;;;;;;34.27;21.07;;;;;;;11.57;100.00;101200.22;4975135;28;20065;-81
2022/10/19 03:09:42;;;;;;;32.88;20.30;;;;;;;11.14;100.00;101163.34;4941941;28;20440;-82
2022/10/19 03:12:12;;;;;;;37.75;19.55;;;;;;;11.34;100.00;101192.28;4974064;28;20030;-83
2022/10/19 03:14:37;;;;;;;39.08;20.20;;;;;;;11.03;100.00;101138.03;4973700;28;20353;-83
2022/10/19 03:17:04;;;;;;;44.28;20.90;;;;;;;10.91;100.00;101139.00;4975290;28;20503;-83
2022/10/19 03:19:32;;;;;;;35.40;19.20;;;;;;;11.16;100.00;101183.69;4974998;28;20375;-84
2022/10/19 03:22:01;;;;;;;37.33;18.77;;;;;;;11.18;100.00;101204.03;4973756;28;20030;-83
2022/10/19 03:24:33;;;;;;;38.60;19.67;;;;;;;11.18;100.00;101209.75;4973665;28;20027;-83
2022/10/19 03:27:03;;;;;;;36.13;19.58;;;;;;;11.01;100.00;101203.50;4942409;28;20031;-84
2022/10/19 03:29:32;;;;;;;38.67;20.60;;;;;;;10.80;100.00;101156.59;4975504;28;20031;-82
2022/10/19 03:32:16;;;;;;;35.75;19.65;;;;;;;10.79;100.00;101177.88;4975146;28;20033;-82
2022/10/19 03:34:42;;;;;;;33.03;19.35;;;;;;;10.77;100.00;101177.56;4973780;28;20030;-81
2022/10/19 03:37:13;;;;;;;37.22;21.02;;;;;;;10.93;100.00;101205.88;4959601;28;20023;-82
2022/10/19 03:39:43;;;;;;;38.80;19.42;;;;;;;10.81;100.00;101203.94;4958691;28;20031;-83
2022/10/19 03:42:23;;;;;;;39.55;20.80;;;;;;;10.85;100.00;101196.00;4973521;28;20446;-84
2022/10/19 03:44:53;;;;;;;39.90;19.35;;;;;;;10.59;100.00;101182.44;4975193;28;20085;-85
2022/10/19 03:47:18;;;;;;;44.47;20.90;;;;;;;10.68;100.00;101186.09;4987408;23;20046;-83
2022/10/19 03:49:44;;;;;;;38.25;20.98;;;;;;;10.62;100.00;101168.00;4957343;28;20380;-83
2022/10/19 03:52:14;;;;;;;42.15;19.58;;;;;;;10.67;100.00;101166.59;4974420;28;20047;-83
2022/10/19 03:54:43;;;;;;;36.05;19.27;;;;;;;10.79;100.00;101191.38;4972887;28;20035;-84
2022/10/19 03:57:15;;;;;;;40.00;21.52;;;;;;;10.54;100.00;101156.06;4955880;28;20404;-84
2022/10/19 03:59:44;;;;;;;33.88;20.10;;;;;;;10.73;100.00;101185.47;4973495;28;20030;-84
2022/10/19 04:02:16;;;;;;;38.88;19.05;;;;;;;10.59;100.00;101168.94;4956398;28;20038;-84
2022/10/19 04:04:44;;;;;;;37.63;19.98;;;;;;;10.52;100.00;101155.75;4956427;28;20031;-83
2022/10/19 04:07:17;;;;;;;41.53;19.13;;;;;;;10.70;100.00;101188.50;4957412;28;20058;-83
2022/10/19 04:09:45;;;;;;;42.50;20.20;;;;;;;10.58;100.00;101187.34;4973347;28;20049;-83
2022/10/19 04:12:13;;;;;;;41.00;20.45;;;;;;;10.63;100.00;101201.00;4957777;28;20037;-83
2022/10/19 04:14:46;;;;;;;44.30;19.85;;;;;;;10.36;100.00;101146.66;4974129;28;20027;-83
2022/10/19 04:17:14;;;;;;;41.70;20.63;;;;;;;10.57;100.00;101191.50;4975250;28;20031;-85
2022/10/19 04:19:54;;;;;;;41.80;21.52;;;;;;;10.43;100.00;101164.28;4973740;28;20034;-85
2022/10/19 04:22:23;;;;;;;41.85;22.55;;;;;;;10.33;100.00;101145.53;4972996;28;20381;-83
2022/10/19 04:24:55;;;;;;;44.55;23.80;;;;;;;10.62;100.00;101205.16;4974189;28;20022;-85
2022/10/19 04:27:25;;;;;;;44.05;23.10;;;;;;;10.27;100.00;101143.75;4974085;28;20030;-86
2022/10/19 04:29:53;;;;;;;40.10;20.85;;;;;;;10.66;100.00;101202.16;4972977;28;20031;-85
2022/10/19 04:32:26;;;;;;;44.42;21.90;;;;;;;10.74;100.00;101201.38;4972476;28;20042;-84
2022/10/19 04:34:54;;;;;;;41.40;21.42;;;;;;;10.61;100.00;101179.91;4956816;28;20027;-83
2022/10/19 04:37:25;;;;;;;45.53;21.75;;;;;;;10.73;100.00;101202.63;4973001;28;20479;-84
2022/10/19 04:39:54;;;;;;;44.67;19.10;;;;;;;10.65;100.00;101207.06;4972494;28;20154;-84
2022/10/19 04:42:27;;;;;;;40.83;20.70;;;;;;;10.71;100.00;101212.97;4956524;28;20031;-84
2022/10/19 04:44:55;;;;;;;42.58;20.25;;;;;;;10.71;100.00;101210.09;4958577;28;20031;-82
2022/10/19 04:47:24;;;;;;;38.47;20.52;;;;;;;10.68;100.00;101205.34;4989772;23;20053;-83
2022/10/19 04:49:53;;;;;;;43.13;19.23;;;;;;;10.64;100.00;101204.66;4979032;28;20035;-83
2022/10/19 04:52:23;;;;;;;31.23;18.17;;;;;;;10.46;100.00;101188.28;4977454;28;20558;-84
2022/10/19 04:54:54;;;;;;;34.28;18.15;;;;;;;10.41;100.00;101191.75;4961161;28;20043;-83
2022/10/19 04:57:24;;;;;;;35.50;18.13;;;;;;;10.37;100.00;101180.47;4978860;28;20046;-85
2022/10/19 04:59:53;;;;;;;31.05;17.27;;;;;;;10.42;100.00;101193.34;4978622;28;20051;-85
2022/10/19 05:02:24;;;;;;;31.00;16.92;;;;;;;10.39;100.00;101211.41;4976524;28;20387;-84
2022/10/19 05:04:50;;;;;;;27.42;16.52;;;;;;;10.22;100.00;101193.72;4977058;28;20035;-84
2022/10/19 05:07:25;;;;;;;34.08;17.33;;;;;;;10.15;100.00;101176.06;4976482;28;20034;-84
2022/10/19 05:09:55;;;;;;;32.22;17.33;;;;;;;10.24;100.00;101204.66;4977023;28;20023;-86
2022/10/19 05:12:23;;;;;;;31.65;16.27;;;;;;;10.00;100.00;101167.25;4982276;28;20019;-87
2022/10/19 05:14:53;;;;;;;37.25;15.10;;;;;;;10.05;100.00;101176.03;4964033;28;20034;-83
2022/10/19 05:17:27;;;;;;;28.38;16.35;;;;;;;9.99;100.00;101189.31;4976398;28;20026;-81
2022/10/19 05:19:54;;;;;;;25.05;14.55;;;;;;;9.99;100.00;101199.94;4976115;28;20023;-83
2022/10/19 05:22:23;;;;;;;29.20;14.65;;;;;;;9.93;100.00;101196.91;4976996;28;20092;-81
2022/10/19 05:24:51;;;;;;;28.98;14.90;;;;;;;9.86;100.00;101194.31;4975720;28;20026;-82
2022/10/19 05:27:16;;;;;;;26.15;14.68;;;;;;;9.99;100.00;101209.28;4975852;28;20102;-82
2022/10/19 05:29:44;;;;;;;21.58;12.63;;;;;;;9.93;100.00;101201.81;4977312;28;20113;-83
2022/10/19 05:32:12;;;;;;;29.70;12.80;;;;;;;10.06;100.00;101211.88;4978308;28;20054;-82
2022/10/19 05:34:37;;;;;;;19.42;10.73;;;;;;;9.98;100.00;101199.16;4959310;28;20018;-78
2022/10/19 05:37:05;;;;;;;21.35;12.00;;;;;;;10.09;100.00;101201.56;4977316;28;20413;-82
2022/10/19 05:39:33;;;;;;;24.55;10.65;;;;;;;10.04;100.00;101208.69;4975902;28;20056;-83
2022/10/19 05:42:01;;;;;;;20.10;9.45;;;;;;;10.14;100.00;101214.47;4976838;28;20037;-83
2022/10/19 05:44:26;;;;;;;17.50;9.68;;;;;;;10.02;100.00;101188.41;4975726;28;20050;-83
2022/10/19 05:46:52;;;;;;;14.55;10.25;;;;;;;10.17;100.00;101216.38;4975040;28;20451;-85
2022/10/19 05:49:21;;;;;;;16.25;8.32;;;;;;;10.05;100.00;101187.44;4975586;28;20077;-82
2022/10/19 05:51:47;;;;;;;14.15;8.48;;;;;;;10.25;100.00;101215.63;4976860;28;20126;-85
2022/10/19 05:54:15;;;;;;;18.65;7.95;;;;;;;10.21;100.00;101214.97;4975490;28;20050;-92
2022/10/19 05:56:43;;;;;;;20.92;7.65;;;;;;;10.20;100.00;101215.44;4961202;28;20019;-90
2022/10/19 05:59:14;;;;;;;12.07;7.00;;;;;;;10.15;100.00;101199.72;4976476;28;20022;-87
2022/10/19 06:01:45;;;;;;;16.15;7.35;;;;;;;10.32;100.00;101221.06;4976429;28;20027;-87
2022/10/19 06:04:13;;;;;;;20.08;7.60;;;;;;;10.32;100.00;101208.84;4975995;28;20464;-87
2022/10/19 06:06:42;;;;;;;13.82;6.93;;;;;;;10.52;100.00;101238.63;4959858;28;20055;-87
2022/10/19 06:09:08;;;;;;;10.90;6.25;;;;;;;10.61;100.00;101245.63;4960473;28;20023;-84
2022/10/19 06:11:36;;;;;;;9.43;6.18;;;;;;;10.66;100.00;101250.75;4984279;28;20041;-85
2022/10/19 06:14:11;;;;;;;12.52;6.03;;;;;;;10.72;100.00;101243.94;4973915;28;20041;-87
2022/10/19 06:16:37;;;;;;;11.70;6.00;;;;;;;10.78;100.00;101253.47;4963471;28;20027;-85
2022/10/19 06:19:06;;;;;;;10.95;5.80;;;;;;;10.69;100.00;101215.50;4996822;28;20033;-87
2022/10/19 06:21:32;;;;;;;10.45;5.60;;;;;;;10.88;100.00;101249.38;4978200;28;20089;-87
2022/10/19 06:24:03;;;;;;;11.45;6.50;;;;;;;10.81;100.00;101228.88;4977936;28;20113;-86
2022/10/19 06:26:29;;;;;;;10.98;5.85;;;;;;;10.90;100.00;101252.56;4975171;28;20038;-87
2022/10/19 06:28:59;;;;;;;14.02;6.35;;;;;;;10.87;100.00;101247.00;4974908;28;20027;-87
2022/10/19 06:31:24;;;;;;;13.80;6.30;;;;;;;10.97;100.00;101263.69;4976085;28;20061;-83
2022/10/19 06:33:49;;;;;;;11.85;6.55;;;;;;;11.04;100.00;101259.75;4978045;28;20035;-85
2022/10/19 06:36:28;;;;;;;12.55;6.07;;;;;;;11.09;100.00;101269.78;4959798;28;20114;-85
2022/10/19 06:38:53;;;;;;;18.85;6.78;;;;;;;11.14;100.00;101274.91;4971968;28;20027;-84
2022/10/19 06:41:19;;;;;;;12.63;6.32;;;;;;;11.23;100.00;101269.19;4977510;28;20122;-81
2022/10/19 06:43:49;;;;;;;13.43;6.80;;;;;;;11.29;100.00;101268.09;4974420;28;20046;-81
2022/10/19 06:46:19;;;;;;;15.27;5.97;;;;;;;11.29;100.00;101265.25;4974456;28;20038;-82
2022/10/19 06:48:49;;;;;;;11.80;6.97;;;;;;;11.30;100.00;101266.84;4960430;28;20100;-81
2022/10/19 06:51:14;;;;;;;10.27;5.97;;;;;;;11.18;100.00;101247.72;4975995;28;20031;-83
2022/10/19 06:53:39;;;;;;;11.20;6.10;;;;;;;11.35;100.00;101259.69;4982256;28;20034;-80
2022/10/19 06:56:05;;;;;;;14.40;5.93;;;;;;;11.32;100.00;101252.84;4978367;28;20027;-82
2022/10/19 06:58:34;;;;;;;12.75;5.63;;;;;;;11.40;100.00;101254.13;4975338;28;20101;-81
2022/10/19 07:01:00;;;;;;;14.30;5.88;;;;;;;11.44;100.00;101262.56;4956787;28;20408;-82
2022/10/19 07:03:26;;;;;;;11.07;5.80;;;;;;;11.55;100.00;101271.47;4977723;28;20035;-86
2022/10/19 07:05:56;;;;;;;13.95;5.72;;;;;;;11.57;100.00;101265.25;4975092;28;20031;-84
2022/10/19 07:08:23;;;;;;;14.32;5.90;;;;;;;11.33;100.00;101239.31;4976435;28;20027;-86
2022/10/19 07:10:53;;;;;;;8.65;5.63;;;;;;;11.43;100.00;101260.97;4958610;28;20125;-85
2022/10/19 07:13:27;;;;;;;15.23;6.25;;;;;;;11.60;100.00;101278.63;4973710;28;20419;-83
2022/10/19 07:16:05;;;;;;;10.52;6.07;;;;;;;11.66;100.00;101280.41;4959149;28;20023;-84
2022/10/19 07:18:34;;;;;;;18.48;5.90;;;;;;;11.74;100.00;101275.13;4958194;28;20054;-85
2022/10/19 07:21:03;;;;;;;9.48;6.15;;;;;;;11.67;100.00;101281.16;4973455;28;20113;-82
2022/10/19 07:23:34;;;;;;;14.18;5.18;;;;;;;11.78;100.00;101290.88;4973566;28;20034;-84
2022/10/19 07:26:06;;;;;;;10.65;4.85;;;;;;;11.75;100.00;101296.78;4973797;28;20051;-85
2022/10/19 07:28:34;;;;;;;13.88;5.40;;;;;;;11.97;100.00;101305.97;4957469;28;20022;-85
2022/10/19 07:31:05;;;;;;;15.10;5.22;;;;;;;12.17;100.00;101294.03;4973214;28;20042;-85
2022/10/19 07:33:30;;;;;;;11.65;4.65;;;;;;;12.21;100.00;101288.91;4973457;28;20067;-85
2022/10/19 07:36:04;;;;;;;9.18;5.05;;;;;;;12.36;100.00;101312.81;4974672;28;20064;-86
2022/10/19 07:38:30;;;;;;;11.65;4.60;;;;;;;12.26;100.00;101291.13;4956211;28;20113;-85
2022/10/19 07:41:06;;;;;;;9.57;4.20;;;;;;;12.36;100.00;101295.59;4956357;28;20134;-86
2022/10/19 07:43:32;;;;;;;11.77;4.95;;;;;;;12.54;100.00;101289.84;4955219;28;20027;-85
2022/10/19 07:46:03;;;;;;;14.43;4.82;;;;;;;12.72;100.00;101294.72;4970652;28;20054;-85
2022/10/19 07:48:36;;;;;;;6.80;3.75;;;;;;;12.42;100.00;101262.16;4955159;28;20030;-85
2022/10/19 07:51:04;;;;;;;13.38;4.90;;;;;;;12.66;100.00;101300.31;4971307;28;20077;-85
2022/10/19 07:53:33;;;;;;;11.95;4.10;;;;;;;12.50;100.00;101286.34;4971408;28;20386;-87
2022/10/19 07:56:03;;;;;;;10.85;4.07;;;;;;;12.61;100.00;101294.41;4955363;28;20434;-86
2022/10/19 07:58:35;;;;;;;11.70;4.70;;;;;;;12.60;100.00;101304.31;4956968;28;20379;-86
2022/10/19 08:01:14;;;;;;;5.55;3.80;;;;;;;12.76;100.00;101311.72;4974250;28;20030;-85
2022/10/19 08:03:40;;;;;;;10.38;4.22;;;;;;;12.73;100.00;101279.09;4972913;28;20026;-85
2022/10/19 08:06:09;;;;;;;8.55;3.60;;;;;;;13.09;100.00;101313.38;4956696;28;20383;-86
2022/10/19 08:08:35;;;;;;;8.90;3.50;;;;;;;13.09;100.00;101313.38;4956696;28;20051;-86
2022/10/19 08:11:15;;;;;;;11.15;3.83;;;;;;;13.12;100.00;101303.78;4974210;28;20042;-86
2022/10/19 08:13:43;;;;;;;11.02;3.65;;;;;;;13.09;100.00;101306.81;4957450;28;20023;-86
2022/10/19 08:16:29;;;;;;;10.48;3.13;;;;;;;13.23;100.00;101306.09;4972092;28;20031;-85
2022/10/19 08:18:59;;;;;;;6.70;3.17;;;;;;;13.38;100.00;101317.66;4959720;28;20034;-85
2022/10/19 08:21:26;;;;;;;5.97;3.47;;;;;;;13.50;100.00;101305.94;4960715;28;20038;-86
2022/10/19 08:23:54;;;;;;;5.70;2.97;;;;;;;13.37;100.00;101316.88;4976927;28;20062;-86
2022/10/19 08:26:22;;;;;;;5.85;2.72;;;;;;;13.25;100.00;101289.19;4976589;28;20027;-85
2022/10/19 08:28:48;;;;;;;7.30;2.85;;;;;;;13.36;100.00;101303.00;4976795;28;20062;-85
2022/10/19 08:31:16;;;;;;;4.75;2.80;;;;;;;13.29;100.00;101309.91;4976805;28;20026;-82
2022/10/19 08:33:42;;;;;;;6.47;2.53;;;;;;;13.34;100.00;101300.59;4978102;28;20499;-84
2022/10/19 08:36:16;;;;;;;6.47;2.72;;;;;;;13.47;100.00;101298.28;4960288;28;20461;-84
2022/10/19 08:38:43;;;;;;;32.85;13.10;;;;;;;13.54;100.00;101311.53;4976801;28;20027;-83
2022/10/19 08:41:37;;;;;;;8.75;4.03;;;;;;;13.68;100.00;101310.00;4976129;28;20034;-83
2022/10/19 08:44:23;;;;;;;6.18;2.30;;;;;;;13.87;100.00;101312.22;4960021;28;20031;-85
2022/10/19 08:47:07;;;;;;;7.47;3.60;;;;;;;13.86;100.00;101313.50;4976896;28;20396;-83
2022/10/19 08:49:33;;;;;;;10.07;3.30;;;;;;;14.00;100.00;101311.94;4977145;28;20033;-84
2022/10/19 08:52:05;;;;;;;14.15;2.85;;;;;;;14.12;100.00;101308.03;4975789;28;20031;-85
2022/10/19 08:54:44;;;;;;;5.82;2.15;;;;;;;14.04;100.00;101298.19;4975736;28;20026;-84
2022/10/19 08:57:37;;;;;;;7.90;3.05;;;;;;;14.20;100.00;101322.78;4977088;28;20031;-83
2022/10/19 09:00:24;;;;;;;14.02;2.53;;;;;;;13.86;100.00;101327.06;4976251;28;20134;-84
2022/10/19 09:03:10;;;;;;;7.60;2.67;;;;;;;14.03;100.00;101316.72;4975656;28;20122;-85
2022/10/19 09:05:41;;;;;;;6.80;1.98;;;;;;;14.21;100.00;101310.00;4969974;28;20037;-86
2022/10/19 09:08:09;;;;;;;9.43;2.33;;;;;;;14.28;100.00;101298.13;4994837;28;20045;-85
2022/10/19 09:10:36;;;;;;;4.53;2.35;;;;;;;14.19;100.00;101306.81;4979345;28;20034;-85
2022/10/19 09:13:07;;;;;;;6.47;2.97;;;;;;;14.28;100.00;101315.38;4995267;28;20066;-85
2022/10/19 09:15:43;;;;;;;4.47;1.90;;;;;;;14.32;100.00;101321.72;4995231;28;20026;-84
2022/10/19 09:18:32;;;;;;;4.63;2.22;;;;;;;14.41;100.00;101321.63;4995245;28;20026;-83
2022/10/19 09:21:00;;;;;;;8.43;1.98;;;;;;;14.53;100.00;101314.78;4978809;28;20085;-81
2022/10/19 09:23:35;;;;;;;8.20;2.70;;;;;;;14.51;100.00;101270.56;4996459;28;20038;-82
2022/10/19 09:26:05;;;;;;;5.82;1.77;;;;;;;14.89;100.00;101301.28;4994890;28;20129;-84
2022/10/19 09:29:02;;;;;;;4.00;1.70;;;;;;;15.27;100.00;101324.91;4995093;28;20066;-84
2022/10/19 09:31:31;;;;;;;4.18;1.85;;;;;;;15.39;100.00;101319.31;4958619;28;20046;-82
2022/10/19 09:34:01;;;;;;;10.48;2.15;;;;;;;15.47;100.00;101329.91;4995918;28;20068;-84
2022/10/19 09:36:50;;;;;;;5.15;2.17;;;;;;;15.41;100.00;101314.66;4994828;28;20053;-82
2022/10/19 09:39:16;;;;;;;10.80;2.38;;;;;;;15.39;100.00;101334.53;4996128;28;20085;-82
2022/10/19 09:42:21;;;;;;;3.92;1.48;;;;;;;14.99;100.00;101337.28;4994661;28;20097;-82
2022/10/19 09:44:47;;;;;;;5.80;1.88;;;;;;;14.89;100.00;101332.94;4954994;29;20039;-84
2022/10/19 09:47:27;;;;;;;8.30;1.75;;;;;;;15.04;100.00;101333.72;4986384;28;20046;-84
2022/10/19 09:50:13;;;;;;;4.75;1.42;;;;;;;15.22;100.00;101331.38;4956834;28;20030;-82
2022/10/19 09:52:39;;;;;;;7.68;1.50;;;;;;;15.25;100.00;101341.91;4956784;28;20094;-82
2022/10/19 09:55:37;;;;;;;6.38;1.23;;;;;;;15.24;100.00;101356.81;4955992;29;20522;-85
2022/10/19 09:58:14;;;;;;;4.95;1.70;;;;;;;15.16;100.00;101339.16;4955808;29;20031;-84
2022/10/19 10:00:49;;;;;;;3.42;1.42;;;;;;;15.13;100.00;101356.63;4955589;28;20106;-82
2022/10/19 10:03:25;;;;;;;3.92;1.15;;;;;;;15.09;100.00;101353.16;4955447;29;20035;-82
2022/10/19 10:06:17;;;;;;;7.93;1.48;;;;;;;15.02;100.00;101345.72;4956763;28;20031;-85
2022/10/19 10:08:57;;;;;;;7.82;1.30;;;;;;;15.10;100.00;101349.00;4954403;29;20122;-85
2022/10/19 10:11:24;;;;;;;4.60;1.52;;;;;;;15.07;100.00;101359.41;4955239;29;20118;-86
2022/10/19 10:13:52;;;;;;;3.65;1.73;;;;;;;14.86;100.00;101336.81;4955450;29;20050;-85
2022/10/19 10:16:21;;;;;;;4.88;1.45;;;;;;;15.00;100.00;101353.28;4956447;28;20030;-86
2022/10/19 10:18:53;;;;;;;5.30;1.85;;;;;;;14.50;100.00;101358.13;4938816;29;20032;-85
2022/10/19 10:21:30;;;;;;;4.97;1.70;;;;;;;13.81;100.00;101294.06;4954989;29;20058;-85
2022/10/19 10:24:04;;;;;;;7.60;1.58;;;;;;;14.29;100.00;101369.50;4939485;29;20027;-82
2022/10/19 10:26:35;;;;;;;9.27;1.50;;;;;;;14.30;100.00;101362.47;4956182;28;20059;-82
2022/10/19 10:29:15;;;;;;;3.83;1.27;;;;;;;14.33;100.00;101352.06;4954826;29;20461;-83
2022/10/19 10:31:44;;;;;;;2.33;0.98;;;;;;;14.33;100.00;101360.69;4938732;29;20039;-84
2022/10/19 10:34:17;;;;;;;6.18;1.60;;;;;;;14.37;100.00;101344.03;4954656;29;20465;-82
2022/10/19 10:36:57;;;;;;;1.67;1.17;;;;;;;14.21;100.00;101324.38;4955971;28;20035;-83
2022/10/19 10:39:27;;;;;;;6.63;1.10;;;;;;;14.41;100.00;101319.53;4939980;29;20023;-85
2022/10/19 10:41:55;;;;;;;8.45;1.08;;;;;;;14.59;100.00;101340.78;4954805;28;20046;-86
2022/10/19 10:44:29;;;;;;;8.27;1.58;;;;;;;14.43;100.00;101321.91;4945511;28;20117;-86
2022/10/19 10:46:56;;;;;;;7.10;1.27;;;;;;;14.53;100.00;101343.53;4976780;28;20050;-87
2022/10/19 10:49:24;;;;;;;4.78;1.00;;;;;;;14.35;100.00;101317.84;4976686;28;20026;-85
2022/10/19 10:51:53;;;;;;;2.22;0.70;;;;;;;14.28;100.00;101344.91;4977026;28;20476;-90
2022/10/19 10:54:29;;;;;;;2.50;1.13;;;;;;;14.25;100.00;101345.91;4977384;28;20483;-88
2022/10/19 10:57:05;;;;;;;2.15;0.95;;;;;;;14.11;100.00;101334.38;4978119;28;20471;-91
2022/10/19 11:00:05;;;;;;;5.25;1.00;;;;;;;14.06;97.61;101326.44;4994305;28;20479;-86
2022/10/19 11:02:44;;;;;;;6.28;0.93;;;;;;;14.17;96.21;101352.53;4994789;28;20038;-85
2022/10/19 11:05:26;;;;;;;3.70;0.80;;;;;;;13.97;95.88;101324.44;4994774;28;20109;-85
2022/10/19 11:08:25;;;;;;;6.38;1.27;;;;;;;14.19;100.00;101347.88;4994423;28;20030;-87
2022/10/19 11:10:56;;;;;;;1.95;1.10;;;;;;;14.31;100.00;101331.63;4996222;28;20026;-91
2022/10/19 11:13:52;;;;;;;2.25;1.25;;;;;;;14.31;99.19;101334.50;4979109;28;20037;-85
2022/10/19 11:16:22;;;;;;;7.32;0.95;;;;;;;14.39;98.60;101327.88;4993230;28;20061;-85
2022/10/19 11:18:55;;;;;;;4.30;1.70;;;;;;;14.47;96.56;101350.50;4976892;28;20117;-87
2022/10/19 11:21:34;;;;;;;2.45;0.60;;;;;;;14.12;95.29;101310.09;4993098;28;20022;-84
2022/10/19 11:24:05;;;;;;;4.32;1.10;;;;;;;14.34;95.44;101345.81;4993019;28;20030;-84
2022/10/19 11:26:52;;;;;;;4.18;0.80;;;;;;;14.34;95.41;101345.00;4992677;28;20033;-86
2022/10/19 11:29:26;;;;;;;4.38;1.23;;;;;;;14.40;95.61;101340.97;4993885;28;20030;-85
2022/10/19 11:31:55;;;;;;;3.88;1.15;;;;;;;14.45;94.43;101333.72;4976735;28;20026;-85
2022/10/19 11:34:35;;;;;;;3.17;1.10;;;;;;;14.69;94.99;101348.84;4976843;28;20077;-89